createdAt,value
2023-05-14T00:00:05.685Z,79.91
2023-05-14T00:00:36.780Z,79.82
2023-05-14T00:01:09.493Z,79.50
2023-05-14T00:01:42.144Z,79.41
2023-05-14T00:02:14.893Z,79.71
2023-05-14T00:02:47.650Z,79.61
2023-05-14T00:03:20.366Z,79.61
2023-05-14T00:03:53.300Z,79.82
2023-05-14T00:04:26.104Z,79.91
2023-05-14T00:04:58.781Z,80.22
2023-05-14T00:05:31.466Z,80.33
2023-05-14T00:06:04.113Z,80.63
2023-05-14T00:06:36.780Z,80.67
2023-05-14T00:07:09.451Z,80.26
2023-05-14T00:07:42.116Z,80.16
2023-05-14T00:08:14.810Z,80.16
2023-05-14T00:08:47.477Z,80.05
2023-05-14T00:09:20.149Z,80.05
2023-05-14T00:09:52.826Z,80.16
2023-05-14T00:10:25.654Z,80.46
2023-05-14T00:10:58.362Z,80.67
2023-05-14T00:11:31.035Z,80.77
2023-05-14T00:12:03.703Z,80.88
2023-05-14T00:12:36.398Z,80.77
2023-05-14T00:13:09.064Z,80.77
2023-05-14T00:13:41.774Z,80.77
2023-05-14T00:14:14.445Z,80.67
2023-05-14T00:14:47.117Z,80.77
2023-05-14T00:15:19.784Z,81.08
2023-05-14T00:15:52.508Z,81.18
2023-05-14T00:16:23.602Z,81.29
2023-05-14T00:16:56.245Z,81.18
2023-05-14T00:17:28.968Z,81.38
2023-05-14T00:18:01.688Z,81.38
2023-05-14T00:18:34.395Z,81.38
2023-05-14T00:19:07.103Z,81.29
2023-05-14T00:19:39.784Z,81.29
2023-05-14T00:20:12.484Z,81.18
2023-05-14T00:20:45.156Z,81.29
2023-05-14T00:21:17.842Z,81.18
2023-05-14T00:21:50.482Z,81.18
2023-05-14T00:22:23.157Z,81.18
2023-05-14T00:22:55.817Z,81.18
2023-05-14T00:23:28.502Z,81.29
2023-05-14T00:24:01.193Z,81.18
2023-05-14T00:24:33.880Z,80.98
2023-05-14T00:25:06.538Z,80.98
2023-05-14T00:25:39.226Z,81.08
2023-05-14T00:26:11.877Z,81.08
2023-05-14T00:26:44.534Z,81.08
2023-05-14T00:27:17.217Z,80.98
2023-05-14T00:27:49.868Z,81.18
2023-05-14T00:28:22.538Z,81.38
2023-05-14T00:28:55.224Z,81.38
2023-05-14T00:29:27.897Z,81.38
2023-05-14T00:30:00.595Z,81.49
2023-05-14T00:30:33.246Z,81.29
2023-05-14T00:31:05.946Z,81.18
2023-05-14T00:31:38.670Z,81.29
2023-05-14T00:32:11.348Z,80.88
2023-05-14T00:32:44.104Z,81.08
2023-05-14T00:33:16.782Z,81.29
2023-05-14T00:33:49.448Z,81.38
2023-05-14T00:34:22.111Z,81.08
2023-05-14T00:34:54.775Z,81.29
2023-05-14T00:35:27.451Z,81.38
2023-05-14T00:36:00.133Z,81.38
2023-05-14T00:36:32.789Z,81.38
2023-05-14T00:37:05.452Z,81.49
2023-05-14T00:37:38.137Z,81.49
2023-05-14T00:38:10.824Z,81.49
2023-05-14T00:38:43.505Z,81.49
2023-05-14T00:39:16.182Z,81.38
2023-05-14T00:39:47.289Z,81.08
2023-05-14T00:40:19.957Z,80.88
2023-05-14T00:40:52.618Z,80.98
2023-05-14T00:41:25.286Z,81.08
2023-05-14T00:41:57.954Z,81.18
2023-05-14T00:42:30.638Z,81.08
2023-05-14T00:43:03.293Z,81.08
2023-05-14T00:43:35.975Z,81.18
2023-05-14T00:44:08.643Z,81.29
2023-05-14T00:44:41.306Z,81.29
2023-05-14T00:45:13.972Z,81.18
2023-05-14T00:45:46.640Z,81.29
2023-05-14T00:46:19.421Z,81.29
2023-05-14T00:46:52.169Z,81.29
2023-05-14T00:47:24.802Z,81.32
2023-05-14T00:47:57.543Z,81.32
2023-05-14T00:48:30.211Z,81.52
2023-05-14T00:49:02.886Z,81.70
2023-05-14T00:49:35.587Z,81.79
2023-05-14T00:50:08.280Z,82.00
2023-05-14T00:50:40.930Z,82.00
2023-05-14T00:51:13.847Z,81.90
2023-05-14T00:51:46.520Z,82.00
2023-05-14T00:52:19.376Z,82.04
2023-05-14T00:52:52.042Z,82.00
2023-05-14T00:53:24.752Z,82.04
2023-05-14T00:53:57.403Z,82.04
2023-05-14T00:54:30.060Z,82.14
2023-05-14T00:55:02.749Z,82.14
2023-05-14T00:55:35.408Z,82.14
2023-05-14T00:56:08.085Z,82.10
2023-05-14T00:56:40.747Z,82.24
2023-05-14T00:57:13.406Z,82.14
2023-05-14T00:57:46.080Z,82.04
2023-05-14T00:58:18.775Z,82.14
2023-05-14T00:58:51.460Z,82.04
2023-05-14T00:59:24.113Z,81.94
2023-05-14T00:59:56.800Z,81.84
2023-05-14T01:00:29.446Z,81.84
2023-05-14T01:01:02.173Z,81.84
2023-05-14T01:01:35.008Z,81.84
2023-05-14T01:02:07.728Z,81.84
2023-05-14T01:02:40.494Z,81.84
2023-05-14T01:03:13.329Z,81.84
2023-05-14T01:03:46.210Z,81.84
2023-05-14T01:04:18.901Z,81.84
2023-05-14T01:04:51.567Z,81.94
2023-05-14T01:05:24.287Z,82.04
2023-05-14T01:05:56.980Z,82.14
2023-05-14T01:06:29.649Z,82.24
2023-05-14T01:07:02.330Z,82.24
2023-05-14T01:07:34.998Z,82.35
2023-05-14T01:08:07.687Z,82.39
2023-05-14T01:08:40.385Z,82.28
2023-05-14T01:09:13.055Z,82.39
2023-05-14T01:09:45.732Z,82.49
2023-05-14T01:10:18.417Z,82.49
2023-05-14T01:10:51.095Z,82.49
2023-05-14T01:11:23.776Z,82.49
2023-05-14T01:11:56.427Z,82.59
2023-05-14T01:12:29.094Z,82.59
2023-05-14T01:13:01.759Z,82.59
2023-05-14T01:13:34.450Z,82.59
2023-05-14T01:14:07.117Z,82.59
2023-05-14T01:14:39.780Z,82.69
2023-05-14T01:15:12.497Z,82.79
2023-05-14T01:15:45.178Z,82.90
2023-05-14T01:16:17.889Z,82.90
2023-05-14T01:16:50.636Z,82.79
2023-05-14T01:17:23.448Z,82.79
2023-05-14T01:17:56.128Z,82.79
2023-05-14T01:18:28.841Z,82.90
2023-05-14T01:19:01.531Z,83.00
2023-05-14T01:19:34.295Z,83.00
2023-05-14T01:20:06.955Z,82.90
2023-05-14T01:20:39.638Z,82.90
2023-05-14T01:21:12.311Z,82.90
2023-05-14T01:21:44.980Z,83.00
2023-05-14T01:22:17.663Z,83.00
2023-05-14T01:22:50.340Z,83.04
2023-05-14T01:23:23.023Z,83.00
2023-05-14T01:23:55.706Z,82.90
2023-05-14T01:24:28.390Z,82.90
2023-05-14T01:25:01.041Z,83.00
2023-05-14T01:25:33.742Z,83.14
2023-05-14T01:26:06.416Z,83.34
2023-05-14T01:26:39.120Z,83.45
2023-05-14T01:27:11.776Z,83.45
2023-05-14T01:27:44.457Z,83.45
2023-05-14T01:28:17.133Z,83.34
2023-05-14T01:28:49.807Z,83.25
2023-05-14T01:29:22.479Z,83.25
2023-05-14T01:29:55.142Z,83.45
2023-05-14T01:30:27.820Z,83.34
2023-05-14T01:31:00.492Z,83.34
2023-05-14T01:31:33.188Z,83.34
2023-05-14T01:32:05.900Z,83.34
2023-05-14T01:32:38.592Z,83.34
2023-05-14T01:33:11.350Z,83.25
2023-05-14T01:33:44.023Z,83.25
2023-05-14T01:34:16.696Z,83.25
2023-05-14T01:34:49.377Z,83.25
2023-05-14T01:35:22.049Z,83.25
2023-05-14T01:35:54.720Z,83.25
2023-05-14T01:36:27.383Z,83.34
2023-05-14T01:37:00.051Z,83.55
2023-05-14T01:37:32.720Z,83.80
2023-05-14T01:38:05.399Z,83.90
2023-05-14T01:38:38.101Z,84.00
2023-05-14T01:39:10.763Z,84.00
2023-05-14T01:39:43.430Z,84.00
2023-05-14T01:40:16.090Z,84.10
2023-05-14T01:40:48.754Z,84.10
2023-05-14T01:41:21.420Z,84.00
2023-05-14T01:41:54.108Z,84.00
2023-05-14T01:42:26.835Z,83.90
2023-05-14T01:42:59.563Z,84.00
2023-05-14T01:43:32.374Z,84.10
2023-05-14T01:44:05.045Z,84.10
2023-05-14T01:44:37.738Z,84.10
2023-05-14T01:45:10.412Z,84.10
2023-05-14T01:45:43.130Z,84.20
2023-05-14T01:46:15.812Z,84.20
2023-05-14T01:46:48.511Z,84.10
2023-05-14T01:47:21.205Z,84.10
2023-05-14T01:47:53.974Z,84.25
2023-05-14T01:48:26.698Z,84.14
2023-05-14T01:48:59.369Z,84.45
2023-05-14T01:49:32.036Z,84.55
2023-05-14T01:50:04.714Z,84.66
2023-05-14T01:50:37.384Z,84.66
2023-05-14T01:51:10.034Z,84.76
2023-05-14T01:51:42.746Z,84.66
2023-05-14T01:52:15.381Z,84.86
2023-05-14T01:52:48.046Z,84.66
2023-05-14T01:53:20.733Z,84.45
2023-05-14T01:53:53.405Z,84.55
2023-05-14T01:54:26.099Z,84.55
2023-05-14T01:54:58.764Z,84.86
2023-05-14T01:55:31.420Z,84.96
2023-05-14T01:56:04.126Z,85.06
2023-05-14T01:56:36.780Z,85.27
2023-05-14T01:57:09.448Z,85.38
2023-05-14T01:57:42.106Z,85.47
2023-05-14T01:58:14.786Z,85.68
2023-05-14T01:58:47.453Z,85.68
2023-05-14T01:59:20.117Z,85.58
2023-05-14T01:59:52.773Z,85.52
2023-05-14T02:00:25.868Z,85.41
2023-05-14T02:00:52.296Z,85.52
2023-05-14T02:01:25.032Z,85.41
2023-05-14T02:01:57.773Z,85.31
2023-05-14T02:02:28.802Z,85.38
2023-05-14T02:03:01.553Z,85.52
2023-05-14T02:03:34.248Z,85.41
2023-05-14T02:04:06.950Z,85.41
2023-05-14T02:04:39.601Z,85.31
2023-05-14T02:05:12.268Z,85.21
2023-05-14T02:05:44.934Z,85.00
2023-05-14T02:06:17.607Z,85.00
2023-05-14T02:06:50.274Z,85.00
2023-05-14T02:07:22.941Z,85.21
2023-05-14T02:07:55.610Z,85.11
2023-05-14T02:08:28.288Z,85.00
2023-05-14T02:09:00.960Z,85.00
2023-05-14T02:09:33.630Z,84.90
2023-05-14T02:10:06.301Z,85.00
2023-05-14T02:10:39.006Z,85.11
2023-05-14T02:11:11.678Z,85.00
2023-05-14T02:11:44.351Z,84.90
2023-05-14T02:12:17.007Z,84.90
2023-05-14T02:12:49.677Z,85.00
2023-05-14T02:13:22.370Z,85.11
2023-05-14T02:13:55.045Z,85.11
2023-05-14T02:14:27.707Z,85.21
2023-05-14T02:15:00.374Z,85.21
2023-05-14T02:15:33.039Z,85.25
2023-05-14T02:16:05.734Z,85.31
2023-05-14T02:16:38.382Z,85.55
2023-05-14T02:17:11.048Z,86.07
2023-05-14T02:17:43.783Z,86.38
2023-05-14T02:18:16.883Z,86.48
2023-05-14T02:18:43.178Z,86.38
2023-05-14T02:19:15.910Z,86.27
2023-05-14T02:19:48.591Z,86.17
2023-05-14T02:20:19.704Z,86.17
2023-05-14T02:20:52.403Z,86.27
2023-05-14T02:21:25.041Z,86.27
2023-05-14T02:21:57.736Z,86.17
2023-05-14T02:22:30.418Z,86.17
2023-05-14T02:23:03.082Z,86.17
2023-05-14T02:23:41.552Z,86.17
2023-05-14T02:24:07.883Z,86.17
2023-05-14T02:24:34.483Z,86.07
2023-05-14T02:25:07.150Z,86.07
2023-05-14T02:25:39.814Z,86.27
2023-05-14T02:26:12.490Z,86.27
2023-05-14T02:26:45.197Z,86.38
2023-05-14T02:27:17.840Z,86.48
2023-05-14T02:27:50.515Z,86.48
2023-05-14T02:28:23.218Z,86.48
2023-05-14T02:28:55.873Z,86.48
2023-05-14T02:29:28.823Z,86.48
2023-05-14T02:30:01.519Z,86.58
2023-05-14T02:30:34.173Z,86.58
2023-05-14T02:31:06.878Z,86.68
2023-05-14T02:31:39.599Z,86.58
2023-05-14T02:32:12.291Z,86.89
2023-05-14T02:32:45.024Z,86.99
2023-05-14T02:33:17.832Z,87.10
2023-05-14T02:33:50.558Z,87.20
2023-05-14T02:34:23.227Z,87.20
2023-05-14T02:34:55.868Z,87.10
2023-05-14T02:35:28.535Z,87.20
2023-05-14T02:36:01.203Z,87.20
2023-05-14T02:36:33.870Z,87.10
2023-05-14T02:37:06.554Z,86.99
2023-05-14T02:37:39.230Z,86.89
2023-05-14T02:38:11.909Z,86.89
2023-05-14T02:38:44.596Z,86.89
2023-05-14T02:39:17.263Z,86.89
2023-05-14T02:39:49.965Z,86.79
2023-05-14T02:40:22.900Z,86.79
2023-05-14T02:40:49.216Z,86.89
2023-05-14T02:41:21.906Z,87.10
2023-05-14T02:41:54.595Z,86.99
2023-05-14T02:42:27.255Z,86.89
2023-05-14T02:42:59.930Z,86.89
2023-05-14T02:43:32.646Z,86.89
2023-05-14T02:44:05.305Z,86.99
2023-05-14T02:44:37.982Z,86.99
2023-05-14T02:45:10.651Z,86.99
2023-05-14T02:45:43.342Z,86.99
2023-05-14T02:46:15.991Z,87.10
2023-05-14T02:46:48.670Z,86.99
2023-05-14T02:47:21.368Z,86.89
2023-05-14T02:47:54.050Z,86.89
2023-05-14T02:48:26.730Z,86.89
2023-05-14T02:48:59.426Z,86.95
2023-05-14T02:49:32.062Z,87.05
2023-05-14T02:50:04.722Z,87.05
2023-05-14T02:50:37.381Z,86.95
2023-05-14T02:51:10.044Z,86.75
2023-05-14T02:51:42.711Z,86.65
2023-05-14T02:52:15.417Z,86.54
2023-05-14T02:52:48.080Z,86.65
2023-05-14T02:53:20.748Z,86.75
2023-05-14T02:53:53.417Z,86.75
2023-05-14T02:54:24.519Z,86.85
2023-05-14T02:54:57.173Z,86.95
2023-05-14T02:55:29.843Z,86.95
2023-05-14T02:56:02.519Z,86.85
2023-05-14T02:56:35.177Z,86.75
2023-05-14T02:57:07.851Z,86.75
2023-05-14T02:57:34.365Z,86.65
2023-05-14T02:58:07.037Z,86.54
2023-05-14T02:58:39.716Z,86.44
2023-05-14T02:59:12.401Z,86.44
2023-05-14T02:59:39.057Z,86.33
2023-05-14T03:00:05.742Z,86.33
2023-05-14T03:00:32.452Z,86.33
2023-05-14T03:00:58.995Z,86.24
2023-05-14T03:01:25.562Z,86.24
2023-05-14T03:01:52.083Z,86.24
2023-05-14T03:02:18.828Z,86.24
2023-05-14T03:02:51.764Z,86.03
2023-05-14T03:03:18.440Z,86.09
2023-05-14T03:03:44.945Z,86.09
2023-05-14T03:04:11.479Z,85.99
2023-05-14T03:04:44.129Z,85.89
2023-05-14T03:05:16.779Z,85.89
2023-05-14T03:05:49.452Z,85.99
2023-05-14T03:06:22.124Z,86.09
2023-05-14T03:06:54.790Z,86.19
2023-05-14T03:07:27.469Z,86.30
2023-05-14T03:08:00.131Z,86.30
2023-05-14T03:08:32.802Z,86.19
2023-05-14T03:09:05.484Z,86.19
2023-05-14T03:09:38.517Z,86.19
2023-05-14T03:10:04.723Z,86.09
2023-05-14T03:10:37.383Z,85.99
2023-05-14T03:11:10.054Z,85.99
2023-05-14T03:11:42.725Z,85.99
2023-05-14T03:12:15.426Z,86.09
2023-05-14T03:12:48.087Z,86.09
2023-05-14T03:13:20.828Z,86.09
2023-05-14T03:13:53.498Z,85.99
2023-05-14T03:14:26.184Z,85.99
2023-05-14T03:14:58.842Z,85.68
2023-05-14T03:15:31.520Z,85.68
2023-05-14T03:16:04.203Z,85.78
2023-05-14T03:16:36.934Z,85.64
2023-05-14T03:17:09.662Z,85.54
2023-05-14T03:17:40.816Z,85.44
2023-05-14T03:18:13.483Z,85.44
2023-05-14T03:18:46.174Z,85.33
2023-05-14T03:19:18.885Z,85.33
2023-05-14T03:19:51.515Z,85.23
2023-05-14T03:20:24.484Z,85.33
2023-05-14T03:20:50.799Z,85.33
2023-05-14T03:21:23.463Z,85.33
2023-05-14T03:21:56.136Z,85.33
2023-05-14T03:22:28.807Z,85.23
2023-05-14T03:23:01.478Z,85.13
2023-05-14T03:23:34.151Z,85.13
2023-05-14T03:24:06.825Z,85.23
2023-05-14T03:24:39.491Z,85.33
2023-05-14T03:25:12.175Z,85.23
2023-05-14T03:25:44.843Z,85.33
2023-05-14T03:26:17.541Z,85.33
2023-05-14T03:26:50.198Z,85.23
2023-05-14T03:27:22.857Z,85.13
2023-05-14T03:27:55.530Z,85.13
2023-05-14T03:28:28.226Z,85.13
2023-05-14T03:29:00.897Z,85.23
2023-05-14T03:29:33.564Z,85.23
2023-05-14T03:30:06.257Z,85.23
2023-05-14T03:30:39.009Z,85.23
2023-05-14T03:31:11.765Z,85.13
2023-05-14T03:31:44.438Z,84.92
2023-05-14T03:32:17.094Z,84.82
2023-05-14T03:32:49.793Z,84.72
2023-05-14T03:33:22.604Z,84.61
2023-05-14T03:33:55.286Z,84.61
2023-05-14T03:34:28.004Z,84.72
2023-05-14T03:35:00.644Z,85.03
2023-05-14T03:35:33.322Z,85.13
2023-05-14T03:36:06.032Z,85.13
2023-05-14T03:36:38.698Z,84.92
2023-05-14T03:37:11.372Z,84.82
2023-05-14T03:37:44.053Z,84.82
2023-05-14T03:38:16.733Z,84.82
2023-05-14T03:38:49.400Z,84.88
2023-05-14T03:39:22.078Z,84.99
2023-05-14T03:39:54.745Z,85.09
2023-05-14T03:40:27.432Z,84.99
2023-05-14T03:41:00.109Z,84.88
2023-05-14T03:41:32.772Z,84.78
2023-05-14T03:42:05.435Z,84.78
2023-05-14T03:42:38.132Z,84.68
2023-05-14T03:43:10.797Z,84.37
2023-05-14T03:43:43.486Z,84.27
2023-05-14T03:44:16.165Z,84.37
2023-05-14T03:44:48.814Z,84.37
2023-05-14T03:45:21.488Z,84.47
2023-05-14T03:45:54.154Z,84.47
2023-05-14T03:46:26.818Z,84.58
2023-05-14T03:46:59.481Z,84.47
2023-05-14T03:47:32.280Z,84.58
2023-05-14T03:48:05.072Z,84.58
2023-05-14T03:48:37.810Z,84.47
2023-05-14T03:49:10.624Z,84.27
2023-05-14T03:49:43.457Z,84.17
2023-05-14T03:50:16.107Z,84.37
2023-05-14T03:50:48.774Z,84.58
2023-05-14T03:51:21.454Z,84.68
2023-05-14T03:51:54.146Z,84.68
2023-05-14T03:52:26.827Z,84.68
2023-05-14T03:52:59.525Z,84.68
2023-05-14T03:53:32.221Z,84.68
2023-05-14T03:54:04.914Z,84.53
2023-05-14T03:54:37.577Z,84.58
2023-05-14T03:55:10.258Z,84.53
2023-05-14T03:55:42.924Z,84.64
2023-05-14T03:56:15.598Z,84.64
2023-05-14T03:56:48.264Z,84.53
2023-05-14T03:57:20.951Z,84.53
2023-05-14T03:57:53.603Z,84.33
2023-05-14T03:58:26.299Z,84.33
2023-05-14T03:58:58.963Z,84.53
2023-05-14T03:59:31.646Z,84.95
2023-05-14T04:00:04.310Z,85.05
2023-05-14T04:00:36.984Z,85.15
2023-05-14T04:01:09.656Z,85.15
2023-05-14T04:01:42.333Z,85.25
2023-05-14T04:02:15.088Z,85.46
2023-05-14T04:02:47.895Z,85.46
2023-05-14T04:03:20.757Z,85.36
2023-05-14T04:03:53.560Z,85.25
2023-05-14T04:04:26.308Z,85.25
2023-05-14T04:04:59.026Z,85.15
2023-05-14T04:05:31.673Z,85.05
2023-05-14T04:06:02.775Z,84.95
2023-05-14T04:06:35.446Z,84.84
2023-05-14T04:07:08.121Z,84.74
2023-05-14T04:07:40.795Z,84.64
2023-05-14T04:08:13.484Z,84.39
2023-05-14T04:08:46.175Z,84.29
2023-05-14T04:09:18.830Z,84.19
2023-05-14T04:09:51.503Z,84.19
2023-05-14T04:10:24.428Z,84.19
2023-05-14T04:10:57.181Z,84.19
2023-05-14T04:11:29.847Z,84.19
2023-05-14T04:12:02.548Z,84.09
2023-05-14T04:12:35.227Z,84.09
2023-05-14T04:13:07.887Z,84.09
2023-05-14T04:13:40.573Z,84.19
2023-05-14T04:14:13.250Z,84.39
2023-05-14T04:14:45.911Z,84.39
2023-05-14T04:15:18.586Z,84.29
2023-05-14T04:15:51.320Z,84.19
2023-05-14T04:16:24.091Z,84.09
2023-05-14T04:16:56.778Z,83.98
2023-05-14T04:17:29.519Z,83.88
2023-05-14T04:18:02.224Z,83.84
2023-05-14T04:18:34.933Z,83.78
2023-05-14T04:19:07.820Z,83.58
2023-05-14T04:19:34.166Z,83.44
2023-05-14T04:20:06.847Z,83.23
2023-05-14T04:20:39.485Z,83.03
2023-05-14T04:21:12.154Z,83.03
2023-05-14T04:21:44.827Z,83.03
2023-05-14T04:22:17.487Z,82.92
2023-05-14T04:22:50.193Z,83.33
2023-05-14T04:23:22.869Z,83.64
2023-05-14T04:23:55.534Z,83.64
2023-05-14T04:24:28.205Z,83.74
2023-05-14T04:25:00.887Z,84.36
2023-05-14T04:25:33.554Z,84.56
2023-05-14T04:26:06.224Z,84.46
2023-05-14T04:26:38.903Z,84.46
2023-05-14T04:27:11.567Z,84.46
2023-05-14T04:27:44.246Z,84.25
2023-05-14T04:28:16.958Z,84.05
2023-05-14T04:28:49.637Z,83.81
2023-05-14T04:29:22.296Z,83.60
2023-05-14T04:29:54.969Z,83.54
2023-05-14T04:30:27.646Z,83.39
2023-05-14T04:31:00.334Z,83.39
2023-05-14T04:31:33.039Z,83.39
2023-05-14T04:32:05.834Z,83.39
2023-05-14T04:32:38.617Z,83.19
2023-05-14T04:33:11.256Z,83.09
2023-05-14T04:33:43.960Z,82.98
2023-05-14T04:34:16.618Z,82.89
2023-05-14T04:34:49.273Z,82.98
2023-05-14T04:35:24.724Z,83.09
2023-05-14T04:35:51.205Z,83.09
2023-05-14T04:36:22.295Z,83.09
2023-05-14T04:36:54.959Z,82.89
2023-05-14T04:37:27.621Z,82.68
2023-05-14T04:38:00.289Z,82.68
2023-05-14T04:38:32.989Z,82.68
2023-05-14T04:39:05.637Z,82.78
2023-05-14T04:39:38.330Z,83.09
2023-05-14T04:40:10.994Z,83.81
2023-05-14T04:40:43.690Z,83.91
2023-05-14T04:41:16.357Z,83.91
2023-05-14T04:41:49.032Z,84.01
2023-05-14T04:42:21.700Z,83.81
2023-05-14T04:42:54.362Z,83.70
2023-05-14T04:43:27.033Z,83.60
2023-05-14T04:43:59.702Z,83.60
2023-05-14T04:44:32.381Z,83.60
2023-05-14T04:45:05.058Z,83.36
2023-05-14T04:45:37.751Z,83.76
2023-05-14T04:46:10.441Z,83.87
2023-05-14T04:46:43.132Z,83.76
2023-05-14T04:47:15.821Z,83.87
2023-05-14T04:47:48.525Z,83.76
2023-05-14T04:48:21.252Z,83.66
2023-05-14T04:48:53.921Z,83.46
2023-05-14T04:49:26.641Z,83.36
2023-05-14T04:49:59.461Z,83.15
2023-05-14T04:50:32.138Z,83.05
2023-05-14T04:51:07.034Z,82.95
2023-05-14T04:51:33.357Z,82.84
2023-05-14T04:52:06.036Z,82.84
2023-05-14T04:52:38.702Z,82.84
2023-05-14T04:53:11.398Z,82.84
2023-05-14T04:53:42.504Z,82.84
2023-05-14T04:54:15.280Z,82.75
2023-05-14T04:54:48.011Z,82.54
2023-05-14T04:55:20.730Z,82.34
2023-05-14T04:55:53.376Z,82.03
2023-05-14T04:56:26.052Z,81.99
2023-05-14T04:56:58.761Z,81.99
2023-05-14T04:57:31.408Z,81.88
2023-05-14T04:58:04.080Z,81.48
2023-05-14T04:58:35.442Z,81.17
2023-05-14T04:59:08.096Z,80.66
2023-05-14T04:59:40.769Z,80.46
2023-05-14T05:00:13.433Z,80.35
2023-05-14T05:00:46.190Z,80.05
2023-05-14T05:01:18.970Z,79.74
2023-05-14T05:01:51.676Z,79.43
2023-05-14T05:02:24.396Z,78.82
2023-05-14T05:02:57.113Z,78.27
2023-05-14T05:03:29.844Z,77.76
2023-05-14T05:04:02.650Z,77.35
2023-05-14T05:04:35.348Z,77.15
2023-05-14T05:05:08.020Z,77.04
2023-05-14T05:05:40.714Z,76.74
2023-05-14T05:06:13.379Z,76.53
2023-05-14T05:06:46.038Z,76.12
2023-05-14T05:07:18.733Z,75.92
2023-05-14T05:07:51.458Z,75.62
2023-05-14T05:08:24.123Z,75.51
2023-05-14T05:08:56.797Z,75.27
2023-05-14T05:09:29.484Z,75.17
2023-05-14T05:10:02.156Z,74.76
2023-05-14T05:10:34.822Z,74.56
2023-05-14T05:11:07.482Z,74.25
2023-05-14T05:11:40.184Z,74.25
2023-05-14T05:12:12.835Z,74.25
2023-05-14T05:12:45.493Z,74.05
2023-05-14T05:13:18.182Z,73.94
2023-05-14T05:13:50.871Z,73.74
2023-05-14T05:14:23.539Z,73.74
2023-05-14T05:14:56.221Z,73.64
2023-05-14T05:15:28.880Z,73.40
2023-05-14T05:16:01.580Z,74.01
2023-05-14T05:16:34.534Z,73.81
2023-05-14T05:17:00.927Z,73.71
2023-05-14T05:17:33.610Z,73.71
2023-05-14T05:18:06.404Z,72.89
2023-05-14T05:18:39.230Z,72.17
2023-05-14T05:19:11.988Z,72.17
2023-05-14T05:19:44.830Z,71.97
2023-05-14T05:20:17.493Z,72.07
2023-05-14T05:20:50.188Z,72.14
2023-05-14T05:21:22.839Z,72.04
2023-05-14T05:21:55.505Z,72.24
2023-05-14T05:22:28.184Z,71.94
2023-05-14T05:22:59.285Z,71.73
2023-05-14T05:23:31.965Z,71.43
2023-05-14T05:24:04.634Z,71.02
2023-05-14T05:24:37.309Z,70.68
2023-05-14T05:25:09.984Z,70.27
2023-05-14T05:25:42.706Z,70.27
2023-05-14T05:26:15.377Z,70.27
2023-05-14T05:26:48.041Z,69.86
2023-05-14T05:27:20.717Z,69.15
2023-05-14T05:27:53.386Z,68.64
2023-05-14T05:28:26.072Z,68.71
2023-05-14T05:28:58.738Z,68.61
2023-05-14T05:29:31.410Z,68.71
2023-05-14T05:30:04.198Z,68.81
2023-05-14T05:30:36.873Z,68.91
2023-05-14T05:31:09.556Z,68.91
2023-05-14T05:31:42.249Z,68.81
2023-05-14T05:32:14.885Z,68.81
2023-05-14T05:32:47.618Z,69.02
2023-05-14T05:33:20.338Z,68.71
2023-05-14T05:33:52.999Z,68.37
2023-05-14T05:34:24.100Z,68.37
2023-05-14T05:34:56.765Z,68.48
2023-05-14T05:35:29.433Z,68.37
2023-05-14T05:36:02.124Z,67.76
2023-05-14T05:36:34.838Z,67.76
2023-05-14T05:37:07.509Z,67.76
2023-05-14T05:37:40.185Z,67.66
2023-05-14T05:38:12.858Z,66.85
2023-05-14T05:38:45.528Z,66.64
2023-05-14T05:39:18.200Z,66.61
2023-05-14T05:39:50.873Z,66.71
2023-05-14T05:40:23.747Z,66.82
2023-05-14T05:40:50.086Z,66.91
2023-05-14T05:41:22.768Z,67.02
2023-05-14T05:41:55.425Z,67.12
2023-05-14T05:42:28.080Z,67.02
2023-05-14T05:43:00.844Z,67.43
2023-05-14T05:43:33.535Z,67.02
2023-05-14T05:44:06.208Z,66.61
2023-05-14T05:44:38.894Z,66.10
2023-05-14T05:45:11.568Z,65.80
2023-05-14T05:45:44.242Z,66.00
2023-05-14T05:46:16.971Z,66.10
2023-05-14T05:46:48.050Z,66.10
2023-05-14T05:47:20.725Z,65.97
2023-05-14T05:47:53.498Z,65.97
2023-05-14T05:48:26.215Z,65.46
2023-05-14T05:48:58.888Z,65.36
2023-05-14T05:49:31.553Z,65.25
2023-05-14T05:50:04.210Z,65.36
2023-05-14T05:50:36.910Z,65.66
2023-05-14T05:51:09.628Z,65.86
2023-05-14T05:51:42.281Z,65.77
2023-05-14T05:52:14.945Z,65.66
2023-05-14T05:52:47.613Z,65.77
2023-05-14T05:53:20.300Z,65.86
2023-05-14T05:53:52.956Z,65.86
2023-05-14T05:54:25.649Z,65.97
2023-05-14T05:54:58.282Z,66.27
2023-05-14T05:55:30.990Z,66.68
2023-05-14T05:56:03.641Z,66.38
2023-05-14T05:56:36.346Z,65.86
2023-05-14T05:57:08.992Z,65.53
2023-05-14T05:57:41.669Z,65.63
2023-05-14T05:58:14.354Z,65.63
2023-05-14T05:58:47.028Z,65.63
2023-05-14T05:59:19.694Z,65.83
2023-05-14T05:59:52.371Z,66.04
2023-05-14T06:00:25.495Z,65.94
2023-05-14T06:00:51.862Z,66.04
2023-05-14T06:01:24.539Z,66.04
2023-05-14T06:01:57.228Z,66.24
2023-05-14T06:02:29.993Z,66.04
2023-05-14T06:03:02.739Z,65.73
2023-05-14T06:03:35.443Z,65.39
2023-05-14T06:04:08.110Z,65.33
2023-05-14T06:04:40.798Z,65.39
2023-05-14T06:05:13.494Z,65.30
2023-05-14T06:05:46.179Z,65.19
2023-05-14T06:06:18.872Z,64.69
2023-05-14T06:06:51.513Z,64.79
2023-05-14T06:07:24.207Z,64.99
2023-05-14T06:07:56.871Z,64.99
2023-05-14T06:08:29.571Z,65.60
2023-05-14T06:09:02.241Z,65.36
2023-05-14T06:09:34.913Z,64.76
2023-05-14T06:10:07.602Z,64.65
2023-05-14T06:10:38.684Z,63.54
2023-05-14T06:11:11.348Z,63.23
2023-05-14T06:11:44.029Z,62.93
2023-05-14T06:12:16.685Z,62.82
2023-05-14T06:12:49.362Z,62.93
2023-05-14T06:13:22.053Z,62.32
2023-05-14T06:13:54.724Z,62.29
2023-05-14T06:14:25.824Z,62.49
2023-05-14T06:14:58.487Z,62.70
2023-05-14T06:15:31.161Z,62.39
2023-05-14T06:16:03.849Z,62.18
2023-05-14T06:16:36.656Z,61.78
2023-05-14T06:17:09.350Z,61.88
2023-05-14T06:17:42.043Z,62.18
2023-05-14T06:18:14.764Z,61.88
2023-05-14T06:18:47.468Z,61.98
2023-05-14T06:19:20.150Z,62.08
2023-05-14T06:19:52.798Z,61.98
2023-05-14T06:20:25.755Z,62.49
2023-05-14T06:20:56.580Z,62.87
2023-05-14T06:21:29.249Z,61.85
2023-05-14T06:22:01.900Z,61.44
2023-05-14T06:22:34.587Z,61.65
2023-05-14T06:23:07.262Z,61.75
2023-05-14T06:23:39.944Z,61.85
2023-05-14T06:24:12.612Z,61.85
2023-05-14T06:24:45.281Z,62.16
2023-05-14T06:25:17.946Z,61.04
2023-05-14T06:25:50.843Z,61.24
2023-05-14T06:26:23.593Z,61.44
2023-05-14T06:26:56.256Z,61.24
2023-05-14T06:27:28.936Z,61.14
2023-05-14T06:28:01.589Z,61.24
2023-05-14T06:28:34.274Z,60.83
2023-05-14T06:29:06.938Z,60.74
2023-05-14T06:29:39.608Z,60.83
2023-05-14T06:30:12.280Z,61.04
2023-05-14T06:30:44.957Z,60.94
2023-05-14T06:31:17.676Z,61.14
2023-05-14T06:31:50.462Z,61.34
2023-05-14T06:32:23.212Z,61.44
2023-05-14T06:32:55.920Z,61.55
2023-05-14T06:33:28.619Z,61.55
2023-05-14T06:34:01.304Z,61.34
2023-05-14T06:34:33.952Z,61.55
2023-05-14T06:35:06.647Z,61.62
2023-05-14T06:35:39.286Z,61.72
2023-05-14T06:36:11.961Z,61.82
2023-05-14T06:36:44.657Z,61.72
2023-05-14T06:37:17.320Z,61.32
2023-05-14T06:37:50.009Z,61.32
2023-05-14T06:38:22.688Z,61.21
2023-05-14T06:38:55.350Z,61.21
2023-05-14T06:39:28.038Z,61.52
2023-05-14T06:40:00.699Z,61.62
2023-05-14T06:40:33.385Z,61.62
2023-05-14T06:41:06.046Z,61.41
2023-05-14T06:41:38.715Z,61.41
2023-05-14T06:42:11.392Z,61.32
2023-05-14T06:42:44.066Z,61.21
2023-05-14T06:43:16.746Z,61.32
2023-05-14T06:43:49.418Z,61.72
2023-05-14T06:44:22.112Z,61.62
2023-05-14T06:44:54.768Z,61.82
2023-05-14T06:45:27.442Z,61.32
2023-05-14T06:46:00.161Z,60.91
2023-05-14T06:46:32.784Z,60.91
2023-05-14T06:47:05.451Z,61.18
2023-05-14T06:47:38.150Z,60.98
2023-05-14T06:48:10.877Z,60.98
2023-05-14T06:48:43.636Z,60.88
2023-05-14T06:49:16.384Z,60.98
2023-05-14T06:49:49.057Z,60.88
2023-05-14T06:50:21.967Z,60.68
2023-05-14T06:50:48.265Z,60.47
2023-05-14T06:51:20.935Z,60.27
2023-05-14T06:51:53.632Z,60.27
2023-05-14T06:52:26.292Z,60.27
2023-05-14T06:52:58.970Z,60.07
2023-05-14T06:53:31.644Z,59.97
2023-05-14T06:54:04.334Z,60.07
2023-05-14T06:54:36.998Z,60.27
2023-05-14T06:55:09.664Z,59.86
2023-05-14T06:55:42.340Z,59.53
2023-05-14T06:56:15.009Z,59.53
2023-05-14T06:56:47.701Z,59.43
2023-05-14T06:57:20.362Z,59.43
2023-05-14T06:57:53.030Z,58.82